createdAt,value
2022-10-23T00:01:55.061Z,13.00
2022-10-23T00:04:25.305Z,13.00
2022-10-23T00:06:53.334Z,14.40
2022-10-23T00:09:22.745Z,16.20
2022-10-23T00:11:51.232Z,17.00
2022-10-23T00:14:20.143Z,15.00
2022-10-23T00:16:49.514Z,16.00
2022-10-23T00:19:17.577Z,22.20
2022-10-23T00:21:45.665Z,17.40
2022-10-23T00:24:13.723Z,14.00
2022-10-23T00:26:41.744Z,16.25
2022-10-23T00:29:10.160Z,22.00
2022-10-23T00:31:38.595Z,13.20
2022-10-23T00:34:09.200Z,14.60
2022-10-23T00:36:37.570Z,13.80
2022-10-23T00:39:05.660Z,15.75
2022-10-23T00:41:33.695Z,13.00
2022-10-23T00:44:05.299Z,13.00
2022-10-23T00:46:33.459Z,14.60
2022-10-23T00:49:02.034Z,13.40
2022-10-23T00:51:34.889Z,12.50
2022-10-23T00:54:22.769Z,13.33
2022-10-23T00:56:50.966Z,17.60
2022-10-23T00:59:19.007Z,14.60
2022-10-23T01:01:47.382Z,13.50
2022-10-23T01:04:15.570Z,15.00
2022-10-23T01:06:47.970Z,11.20
2022-10-23T01:09:19.044Z,14.00
2022-10-23T01:11:48.740Z,15.00
2022-10-23T01:14:20.911Z,13.00
2022-10-23T01:16:53.512Z,13.75
2022-10-23T01:19:22.908Z,19.00
2022-10-23T01:21:56.418Z,13.00
2022-10-23T01:24:38.250Z,17.60
2022-10-23T01:27:22.121Z,13.00
2022-10-23T01:29:53.130Z,14.50
2022-10-23T01:32:29.180Z,12.00
2022-10-23T01:35:00.143Z,14.40
2022-10-23T01:37:30.363Z,17.00
2022-10-23T01:40:03.747Z,12.50
2022-10-23T01:42:36.646Z,12.00
2022-10-23T01:45:06.170Z,12.40
2022-10-23T01:47:41.930Z,15.40
2022-10-23T01:50:11.307Z,12.20
2022-10-23T01:52:40.995Z,11.00
2022-10-23T01:55:09.596Z,12.00
2022-10-23T01:57:38.997Z,12.00
2022-10-23T02:00:08.959Z,12.00
2022-10-23T02:02:51.905Z,12.00
2022-10-23T02:05:23.380Z,12.00
2022-10-23T02:07:51.614Z,12.00
2022-10-23T02:10:20.745Z,18.00
2022-10-23T02:12:51.759Z,12.40
2022-10-23T02:15:22.376Z,11.00
2022-10-23T02:17:52.752Z,14.00
2022-10-23T02:20:23.198Z,13.00
2022-10-23T02:22:56.746Z,10.40
2022-10-23T02:25:27.690Z,11.75
2022-10-23T02:27:59.251Z,18.60
2022-10-23T02:30:34.539Z,10.60
2022-10-23T02:33:10.218Z,16.00
2022-10-23T02:35:38.312Z,12.60
2022-10-23T02:38:31.701Z,11.00
2022-10-23T02:41:02.170Z,13.00
2022-10-23T02:43:33.456Z,12.33
2022-10-23T02:46:04.756Z,12.00
2022-10-23T02:48:34.909Z,15.60
2022-10-23T02:51:10.778Z,12.00
2022-10-23T02:53:42.348Z,9.60
2022-10-23T02:56:11.871Z,11.00
2022-10-23T02:58:43.521Z,12.00
2022-10-23T03:01:13.008Z,10.75
2022-10-23T03:03:42.995Z,14.00
2022-10-23T03:06:11.060Z,12.00
2022-10-23T03:08:43.458Z,12.00
2022-10-23T03:11:11.679Z,11.00
2022-10-23T03:13:41.128Z,9.00
2022-10-23T03:16:09.381Z,10.00
2022-10-23T03:18:37.562Z,10.00
2022-10-23T03:21:05.604Z,12.00
2022-10-23T03:23:34.967Z,9.00
2022-10-23T03:26:03.488Z,9.00
2022-10-23T03:28:39.297Z,8.00
2022-10-23T03:31:08.791Z,8.50
2022-10-23T03:33:37.583Z,9.00
2022-10-23T03:36:11.589Z,12.40
2022-10-23T03:38:40.600Z,10.40
2022-10-23T03:41:08.670Z,11.00
2022-10-23T03:43:37.545Z,10.80
2022-10-23T03:46:12.548Z,9.50
2022-10-23T03:48:42.144Z,7.40
2022-10-23T03:51:10.479Z,10.00
2022-10-23T03:53:41.894Z,11.00
2022-10-23T03:56:09.929Z,10.00
2022-10-23T03:58:37.987Z,8.00
2022-10-23T04:01:06.135Z,8.80
2022-10-23T04:03:35.580Z,8.60
2022-10-23T04:06:03.680Z,11.25
2022-10-23T04:08:32.682Z,9.00
2022-10-23T04:11:00.817Z,10.00
2022-10-23T04:13:35.788Z,9.00
2022-10-23T04:16:03.875Z,9.00
2022-10-23T04:18:31.941Z,13.00
2022-10-23T04:21:01.351Z,9.25
2022-10-23T04:23:29.430Z,9.00
2022-10-23T04:25:58.177Z,6.00
2022-10-23T04:28:27.018Z,6.40
2022-10-23T04:30:55.694Z,6.00
2022-10-23T04:33:23.754Z,7.00
2022-10-23T04:35:52.829Z,8.20
2022-10-23T04:38:22.252Z,7.25
2022-10-23T04:40:51.309Z,12.50
2022-10-23T04:43:23.468Z,7.40
2022-10-23T04:45:51.594Z,6.20
2022-10-23T04:48:19.700Z,7.00
2022-10-23T04:51:07.744Z,6.00
2022-10-23T04:54:00.045Z,6.00
2022-10-23T04:56:56.892Z,5.50
2022-10-23T04:59:25.670Z,5.00
2022-10-23T05:01:53.939Z,4.00
2022-10-23T05:04:25.233Z,3.75
2022-10-23T05:07:11.764Z,5.00
2022-10-23T05:10:19.891Z,3.00
2022-10-23T05:13:08.203Z,5.20
2022-10-23T05:15:36.311Z,4.40
2022-10-23T05:18:08.858Z,5.00
2022-10-23T05:20:37.071Z,3.60
2022-10-23T05:23:05.132Z,5.40
2022-10-23T05:25:34.603Z,4.00
2022-10-23T05:28:13.198Z,5.00
2022-10-23T05:30:42.057Z,6.00
2022-10-23T05:33:10.313Z,4.00
2022-10-23T05:35:41.487Z,5.00
2022-10-23T05:38:10.042Z,4.00
2022-10-23T05:40:40.281Z,4.00
2022-10-23T05:43:10.106Z,5.00
2022-10-23T05:45:58.540Z,3.00
2022-10-23T05:48:44.939Z,5.00
2022-10-23T05:51:39.384Z,4.00
2022-10-23T05:54:27.669Z,3.00
2022-10-23T05:59:52.028Z,4.00
2022-10-23T06:02:28.726Z,7.00
2022-10-23T06:05:03.517Z,3.60
2022-10-23T06:08:03.465Z,4.60
2022-10-23T06:10:32.661Z,3.00
2022-10-23T06:13:07.137Z,3.00
2022-10-23T06:15:35.350Z,2.00
2022-10-23T06:18:23.638Z,3.00
2022-10-23T06:21:06.961Z,3.00
2022-10-23T06:23:35.319Z,2.00
2022-10-23T06:26:03.444Z,4.00
2022-10-23T06:28:53.082Z,3.00
2022-10-23T06:31:26.536Z,3.00
2022-10-23T06:33:55.415Z,3.00
2022-10-23T06:36:24.105Z,2.20
2022-10-23T06:38:56.427Z,3.00
2022-10-23T06:41:30.587Z,4.00
2022-10-23T06:43:59.994Z,4.00
2022-10-23T06:46:41.424Z,5.00
2022-10-23T06:49:09.437Z,4.00
2022-10-23T06:51:45.712Z,3.25
2022-10-23T06:54:15.313Z,5.00
2022-10-23T06:56:52.152Z,5.00
2022-10-23T06:59:25.661Z,11.00
2022-10-23T07:04:27.721Z,6.00
2022-10-23T07:06:57.125Z,4.20
2022-10-23T07:09:31.074Z,8.60
2022-10-23T07:11:59.118Z,11.60
2022-10-23T07:14:41.004Z,19.75
2022-10-23T07:17:09.266Z,37.00
2022-10-23T07:19:37.304Z,38.00
2022-10-23T07:22:12.026Z,38.50
2022-10-23T07:24:49.836Z,27.50
2022-10-23T07:27:25.327Z,71.25
2022-10-23T07:29:58.728Z,55.00
2022-10-23T07:32:30.021Z,30.00
2022-10-23T07:35:18.079Z,35.00
2022-10-23T07:37:57.078Z,24.80
2022-10-23T07:40:25.287Z,19.40
2022-10-23T07:42:56.368Z,45.40
2022-10-23T07:45:25.903Z,34.20
2022-10-23T07:47:54.784Z,32.60
2022-10-23T07:50:26.351Z,37.20
2022-10-23T07:52:54.400Z,15.00
2022-10-23T07:55:25.703Z,29.00
2022-10-23T07:58:00.858Z,27.75
2022-10-23T08:00:42.523Z,34.00
2022-10-23T08:03:17.917Z,18.60
2022-10-23T08:05:46.319Z,16.40
2022-10-23T08:08:14.665Z,23.50
2022-10-23T08:10:47.502Z,17.00
2022-10-23T08:13:21.389Z,14.00
2022-10-23T08:16:09.606Z,15.00
2022-10-23T08:18:57.931Z,15.00
2022-10-23T08:21:26.059Z,13.40
2022-10-23T08:23:55.757Z,15.20
2022-10-23T08:26:24.671Z,19.60
2022-10-23T08:28:52.942Z,16.00
2022-10-23T08:31:22.721Z,20.75
2022-10-23T08:34:13.642Z,16.00
2022-10-23T08:36:43.094Z,13.00
2022-10-23T08:39:11.184Z,12.00
2022-10-23T08:41:43.793Z,10.80
2022-10-23T08:44:20.976Z,12.75
2022-10-23T08:46:51.964Z,12.75
2022-10-23T08:49:52.647Z,11.00
2022-10-23T08:52:23.198Z,10.40
2022-10-23T08:55:01.340Z,13.00
2022-10-23T08:57:33.504Z,13.00
2022-10-23T09:00:02.577Z,13.00
2022-10-23T09:02:33.959Z,10.00
2022-10-23T09:05:01.982Z,13.00
2022-10-23T09:07:38.146Z,13.00
2022-10-23T09:10:20.136Z,11.00
2022-10-23T09:12:48.342Z,10.20
2022-10-23T09:15:24.343Z,24.60
2022-10-23T09:17:57.531Z,20.75
2022-10-23T09:20:27.168Z,23.25
2022-10-23T09:22:56.415Z,16.25
2022-10-23T09:25:26.220Z,11.20
2022-10-23T09:27:56.686Z,15.00
2022-10-23T09:30:31.940Z,30.80
2022-10-23T09:33:01.448Z,37.00
2022-10-23T09:35:30.599Z,29.50
2022-10-23T09:37:58.652Z,23.00
2022-10-23T09:40:30.970Z,24.00
2022-10-23T09:43:00.236Z,13.00
2022-10-23T09:45:31.826Z,16.00
2022-10-23T09:48:12.103Z,19.20
2022-10-23T09:50:44.361Z,43.80
2022-10-23T09:53:14.850Z,41.60
2022-10-23T09:55:42.906Z,15.20
2022-10-23T09:58:20.884Z,13.40
2022-10-23T10:00:52.274Z,47.75
2022-10-23T10:03:38.663Z,33.40
2022-10-23T10:06:22.717Z,25.40
2022-10-23T10:08:51.988Z,30.00
2022-10-23T10:11:22.936Z,16.25
2022-10-23T10:14:01.698Z,11.25
2022-10-23T10:16:35.023Z,10.80
2022-10-23T10:19:08.833Z,14.60
2022-10-23T10:21:38.832Z,12.00
2022-10-23T10:24:09.218Z,14.20
2022-10-23T10:26:40.654Z,13.00
2022-10-23T10:29:15.260Z,12.00
2022-10-23T10:31:53.112Z,29.75
2022-10-23T10:34:26.138Z,14.60
2022-10-23T10:36:55.800Z,20.00
2022-10-23T10:39:33.053Z,19.00
2022-10-23T10:42:11.058Z,26.00
2022-10-23T10:44:51.441Z,23.00
2022-10-23T10:47:22.829Z,19.33
2022-10-23T10:49:59.533Z,7.60
2022-10-23T10:52:45.429Z,8.60
2022-10-23T10:55:25.757Z,8.00
2022-10-23T11:01:43.782Z,9.00
2022-10-23T11:04:14.655Z,10.00
2022-10-23T11:06:44.660Z,6.00
2022-10-23T11:09:20.591Z,8.00
2022-10-23T11:11:49.358Z,7.00
2022-10-23T11:14:17.778Z,7.20
2022-10-23T11:16:47.872Z,8.00
2022-10-23T11:19:21.426Z,6.20
2022-10-23T11:21:57.343Z,5.20
2022-10-23T11:24:40.754Z,4.00
2022-10-23T11:27:46.340Z,6.00
2022-10-23T11:30:19.595Z,5.80
2022-10-23T11:33:03.868Z,5.00
2022-10-23T11:35:46.438Z,7.00
2022-10-23T11:38:18.447Z,6.20
2022-10-23T11:40:47.319Z,6.00
2022-10-23T11:43:15.399Z,5.00
2022-10-23T11:45:43.485Z,5.60
2022-10-23T11:48:22.816Z,8.00
2022-10-23T11:50:52.393Z,5.00
2022-10-23T11:53:39.881Z,6.00
2022-10-23T11:56:27.926Z,7.00
2022-10-23T11:58:57.777Z,42.00
2022-10-23T12:01:35.379Z,14.00
2022-10-23T12:04:04.907Z,8.00
2022-10-23T12:06:34.659Z,19.20
2022-10-23T12:09:07.999Z,17.50
2022-10-23T12:11:44.194Z,14.50
2022-10-23T12:14:30.812Z,8.00
2022-10-23T12:16:58.838Z,12.00
2022-10-23T12:19:27.837Z,8.00
2022-10-23T12:21:56.278Z,9.75
2022-10-23T12:24:44.105Z,12.40
2022-10-23T12:27:19.519Z,19.00
2022-10-23T12:30:13.298Z,11.00
2022-10-23T12:32:52.458Z,22.20
2022-10-23T12:35:30.091Z,13.40
2022-10-23T12:38:04.750Z,9.00
2022-10-23T12:40:34.311Z,11.00
2022-10-23T12:43:02.491Z,22.60
2022-10-23T12:45:31.251Z,15.00
2022-10-23T12:48:00.324Z,11.67
2022-10-23T12:50:29.506Z,14.60
2022-10-23T12:52:58.268Z,32.00
2022-10-23T12:55:28.841Z,19.60
2022-10-23T12:58:00.308Z,14.40
2022-10-23T13:00:28.360Z,8.40
2022-10-23T13:02:59.948Z,16.40
2022-10-23T13:05:27.985Z,25.20
2022-10-23T13:07:55.986Z,15.60
2022-10-23T13:10:36.039Z,20.80
2022-10-23T13:13:08.453Z,16.00
2022-10-23T13:15:40.144Z,31.60
2022-10-23T13:18:08.568Z,12.60
2022-10-23T13:20:38.098Z,16.00
2022-10-23T13:23:13.664Z,10.80
2022-10-23T13:25:41.700Z,7.40
2022-10-23T13:28:25.368Z,8.80
2022-10-23T13:31:05.020Z,8.60
2022-10-23T13:33:37.563Z,9.00
2022-10-23T13:36:07.610Z,7.00
2022-10-23T13:38:36.387Z,7.00
2022-10-23T13:41:06.027Z,5.00
2022-10-23T13:43:35.412Z,7.00
2022-10-23T13:46:03.868Z,7.00
2022-10-23T13:48:33.167Z,5.00
2022-10-23T13:51:07.250Z,7.00
2022-10-23T13:53:35.250Z,8.00
2022-10-23T13:56:03.284Z,5.00
2022-10-23T13:58:31.294Z,7.00
2022-10-23T14:01:00.767Z,5.60
2022-10-23T14:03:28.884Z,6.00
2022-10-23T14:05:56.915Z,6.25
2022-10-23T14:08:24.925Z,7.00
2022-10-23T14:10:52.957Z,6.00
2022-10-23T14:13:20.969Z,8.00
2022-10-23T14:15:54.488Z,6.00
2022-10-23T14:18:24.452Z,5.00
2022-10-23T14:20:52.492Z,7.40
2022-10-23T14:23:20.497Z,8.00
2022-10-23T14:25:48.531Z,6.00
2022-10-23T14:28:16.599Z,6.60
2022-10-23T14:30:44.679Z,4.40
2022-10-23T14:33:12.686Z,4.25
2022-10-23T14:35:43.392Z,4.60
2022-10-23T14:38:11.407Z,5.60
2022-10-23T14:40:39.455Z,5.75
2022-10-23T14:43:07.489Z,5.80
2022-10-23T14:45:35.519Z,5.50
2022-10-23T14:48:03.519Z,5.00
2022-10-23T14:50:31.990Z,8.20
2022-10-23T14:55:34.276Z,7.00
2022-10-23T14:58:02.308Z,5.00
2022-10-23T15:00:30.348Z,6.00
2022-10-23T15:02:58.352Z,8.00
2022-10-23T15:05:26.406Z,7.00
2022-10-23T15:07:55.739Z,7.00
2022-10-23T15:10:25.132Z,6.00
2022-10-23T15:12:53.147Z,7.00
2022-10-23T15:15:22.410Z,6.00
2022-10-23T15:17:50.407Z,4.20
2022-10-23T15:20:18.520Z,6.25
2022-10-23T15:22:46.605Z,7.00
2022-10-23T15:25:17.879Z,7.40
2022-10-23T15:27:48.409Z,9.40
2022-10-23T15:30:16.584Z,6.00
2022-10-23T15:32:44.591Z,8.00
2022-10-23T15:35:12.622Z,7.00
2022-10-23T15:37:40.779Z,9.00
2022-10-23T15:40:10.098Z,9.00
2022-10-23T15:42:38.101Z,7.50
2022-10-23T15:45:08.723Z,7.00
2022-10-23T15:47:36.821Z,9.00
2022-10-23T15:50:05.420Z,9.00
2022-10-23T15:52:33.424Z,12.00
2022-10-23T15:55:01.454Z,14.00
2022-10-23T15:57:31.206Z,9.50
2022-10-23T15:59:59.242Z,8.00
2022-10-23T16:02:28.775Z,13.00
2022-10-23T16:04:56.886Z,14.20
2022-10-23T16:07:24.887Z,13.00
2022-10-23T16:09:52.912Z,16.80
2022-10-23T16:12:20.916Z,15.80
2022-10-23T16:14:49.067Z,13.25
2022-10-23T16:17:17.632Z,11.25
2022-10-23T16:19:47.040Z,10.60
2022-10-23T16:22:16.180Z,10.20
2022-10-23T16:24:44.276Z,11.00
2022-10-23T16:27:13.416Z,19.60
2022-10-23T16:29:41.462Z,14.80
2022-10-23T16:32:09.466Z,11.25
2022-10-23T16:34:37.511Z,9.00
2022-10-23T16:37:06.875Z,10.00
2022-10-23T16:40:01.957Z,16.80
2022-10-23T16:42:48.596Z,9.75
2022-10-23T16:45:38.049Z,10.00
2022-10-23T16:48:06.370Z,10.00
2022-10-23T16:50:34.402Z,11.40
2022-10-23T16:53:04.444Z,11.00
2022-10-23T16:55:32.441Z,10.60
2022-10-23T16:58:00.715Z,11.00
2022-10-23T17:00:34.895Z,12.50
2022-10-23T17:03:03.718Z,9.00
2022-10-23T17:05:34.303Z,8.50
2022-10-23T17:08:03.687Z,10.50
2022-10-23T17:10:31.699Z,8.00
2022-10-23T17:12:59.709Z,10.00
2022-10-23T17:15:27.790Z,7.25
2022-10-23T17:17:55.795Z,7.00
2022-10-23T17:20:24.074Z,8.20
2022-10-23T17:22:52.083Z,8.25
2022-10-23T17:25:21.462Z,13.00
2022-10-23T17:27:49.476Z,11.00
2022-10-23T17:30:17.680Z,13.60
2022-10-23T17:32:46.091Z,10.00
2022-10-23T17:35:14.562Z,7.80
2022-10-23T17:37:42.562Z,10.00
2022-10-23T17:40:11.336Z,9.20
2022-10-23T17:42:40.769Z,10.00
2022-10-23T17:45:09.917Z,12.25
2022-10-23T17:47:40.135Z,10.80
2022-10-23T17:50:09.605Z,11.00
2022-10-23T17:52:37.640Z,11.00
2022-10-23T17:55:06.287Z,10.00
2022-10-23T17:57:34.295Z,10.50
2022-10-23T18:00:05.284Z,10.00
2022-10-23T18:02:40.381Z,13.00
2022-10-23T18:05:08.926Z,11.00
2022-10-23T18:07:36.927Z,8.00
2022-10-23T18:10:05.640Z,15.40
2022-10-23T18:12:33.645Z,12.00
2022-10-23T18:15:03.224Z,15.00
2022-10-23T18:17:31.232Z,21.00
2022-10-23T18:20:02.027Z,20.00
2022-10-23T18:22:33.152Z,21.50
2022-10-23T18:25:01.652Z,16.00
2022-10-23T18:27:29.648Z,19.00
2022-10-23T18:29:57.682Z,12.00
2022-10-23T18:32:27.918Z,18.80
2022-10-23T18:34:55.962Z,16.00
2022-10-23T18:37:24.777Z,14.00
2022-10-23T18:39:54.068Z,11.25
2022-10-23T18:42:22.072Z,16.00
2022-10-23T18:44:50.130Z,12.40
2022-10-23T18:47:18.179Z,13.60
2022-10-23T18:49:47.568Z,12.40
2022-10-23T18:52:15.581Z,16.60
2022-10-23T18:54:43.617Z,16.00
2022-10-23T18:57:11.619Z,13.00
2022-10-23T18:59:39.663Z,10.60
2022-10-23T19:02:07.850Z,14.00
2022-10-23T19:04:36.517Z,13.00
2022-10-23T19:07:05.958Z,23.20
2022-10-23T19:09:34.096Z,18.20
2022-10-23T19:12:02.519Z,13.40
2022-10-23T19:14:31.037Z,10.25
2022-10-23T19:17:00.247Z,15.00
2022-10-23T19:19:29.731Z,14.00
2022-10-23T19:21:57.759Z,16.60
2022-10-23T19:24:29.583Z,11.40
2022-10-23T19:26:57.946Z,11.60
2022-10-23T19:29:26.674Z,11.75
2022-10-23T19:31:54.808Z,9.25
2022-10-23T19:34:24.864Z,13.25
2022-10-23T19:36:53.283Z,9.00
2022-10-23T19:39:21.388Z,15.00
2022-10-23T19:41:51.904Z,11.00
2022-10-23T19:44:20.067Z,11.00
2022-10-23T19:46:48.136Z,10.00
2022-10-23T19:49:16.199Z,8.50
2022-10-23T19:51:50.393Z,9.00
2022-10-23T19:54:19.275Z,10.60
2022-10-23T19:56:47.291Z,9.40
2022-10-23T19:59:16.749Z,9.00
2022-10-23T20:01:47.861Z,9.60
2022-10-23T20:04:16.993Z,8.40
2022-10-23T20:06:45.005Z,8.00
2022-10-23T20:09:13.060Z,8.00
2022-10-23T20:11:41.062Z,8.50
2022-10-23T20:14:09.100Z,8.00
2022-10-23T20:16:39.321Z,9.40
2022-10-23T20:19:09.553Z,10.40
2022-10-23T20:21:37.728Z,9.00
2022-10-23T20:24:06.086Z,7.60
2022-10-23T20:26:34.093Z,9.60
2022-10-23T20:29:02.164Z,9.60
2022-10-23T20:31:30.167Z,9.00
2022-10-23T20:33:59.555Z,10.00
2022-10-23T20:36:28.360Z,8.60
2022-10-23T20:38:56.455Z,9.00
2022-10-23T20:41:26.063Z,10.75
2022-10-23T20:43:55.578Z,8.00
2022-10-23T20:46:23.858Z,9.00
2022-10-23T20:48:51.973Z,10.00
2022-10-23T20:51:22.193Z,10.00
2022-10-23T20:53:50.895Z,11.00
2022-10-23T20:56:19.864Z,10.00
2022-10-23T20:58:47.916Z,9.00
2022-10-23T21:01:17.780Z,10.20
2022-10-23T21:03:49.900Z,9.60
2022-10-23T21:06:18.451Z,12.00
2022-10-23T21:08:47.855Z,10.00
2022-10-23T21:11:16.494Z,25.00
2022-10-23T21:13:44.860Z,17.00
2022-10-23T21:16:14.482Z,25.33
2022-10-23T21:18:46.086Z,28.00
2022-10-23T21:21:14.909Z,47.40
2022-10-23T21:23:42.939Z,68.00
2022-10-23T21:26:12.299Z,48.75
2022-10-23T21:28:47.258Z,32.75
2022-10-23T21:31:24.453Z,27.50
2022-10-23T21:33:52.542Z,21.75
2022-10-23T21:36:21.656Z,16.00
2022-10-23T21:38:50.812Z,16.00
2022-10-23T21:41:21.205Z,16.00
2022-10-23T21:43:49.271Z,19.50
2022-10-23T21:46:18.334Z,15.00
2022-10-23T21:48:46.405Z,9.75
2022-10-23T21:51:16.080Z,12.60
2022-10-23T21:53:44.106Z,20.25
2022-10-23T21:56:14.591Z,18.00
2022-10-23T21:58:43.983Z,16.00
2022-10-23T22:01:12.089Z,10.00
2022-10-23T22:03:40.201Z,17.25
2022-10-23T22:06:10.575Z,12.00
2022-10-23T22:08:38.604Z,16.00
2022-10-23T22:11:06.667Z,17.00
2022-10-23T22:13:34.700Z,14.00
2022-10-23T22:16:04.428Z,12.00
2022-10-23T22:18:32.451Z,14.20
2022-10-23T22:21:01.740Z,13.00
2022-10-23T22:23:29.928Z,11.40
2022-10-23T22:25:57.944Z,10.00
2022-10-23T22:28:26.022Z,9.00
2022-10-23T22:30:54.015Z,10.40
2022-10-23T22:33:23.400Z,12.25
2022-10-23T22:35:51.398Z,9.00
2022-10-23T22:38:19.430Z,11.00
2022-10-23T22:40:47.459Z,12.00
2022-10-23T22:43:15.493Z,12.00
2022-10-23T22:45:43.492Z,17.25
2022-10-23T22:48:11.526Z,12.80
2022-10-23T22:50:40.897Z,10.25
2022-10-23T22:53:08.922Z,11.00
2022-10-23T22:55:36.927Z,10.00
2022-10-23T22:58:04.969Z,11.50
2022-10-23T23:00:32.971Z,10.50
2022-10-23T23:03:01.031Z,10.00
2022-10-23T23:05:29.061Z,10.00
2022-10-23T23:07:58.452Z,11.50
2022-10-23T23:10:26.464Z,11.00
2022-10-23T23:12:54.657Z,11.50
2022-10-23T23:15:22.650Z,11.00
2022-10-23T23:17:50.684Z,11.20
2022-10-23T23:20:18.895Z,12.00
2022-10-23T23:22:47.033Z,33.00
2022-10-23T23:25:16.740Z,35.50
2022-10-23T23:27:44.772Z,26.25
2022-10-23T23:30:13.146Z,20.20
2022-10-23T23:32:41.409Z,31.20
2022-10-23T23:35:10.258Z,28.00
2022-10-23T23:37:38.287Z,30.25
2022-10-23T23:40:07.296Z,26.00
2022-10-23T23:42:36.704Z,12.00
2022-10-23T23:45:14.338Z,13.00
2022-10-23T23:47:43.419Z,11.00
2022-10-23T23:50:11.882Z,11.00
2022-10-23T23:52:39.912Z,11.00
2022-10-23T23:55:08.605Z,12.00
2022-10-23T23:57:37.990Z,10.20
